< < Back
Terminal Aerodrome Forecast


Current Version              Previous Versions:   1  2  3  4  5  6  7  8  9  

Terminal Aerodrome Forecast

445
FTUS42 KFFC 012300
TAFMCN
TAF
KMCN 012324Z 0200/0224 00000KT P6SM SKC
     FM021000 00000KT 4SM BR SCT012
      TEMPO 0210/0213 2SM BR OVC012
     FM021400 17004KT P6SM SCT035=

Latest METAR

818
SAUS80 KWBC 020200 RRC
MTRMCN
METAR KMCN 020153Z AUTO 00000KT 10SM CLR 19/19 A3000 RMK AO2 SLP157
T01940194 TSNO


USA.gov is the U.S. government's official web portal to all federal, state and local government web resources and services.